sensor_id;sensor_type;location;lat;lon;timestamp;temperature;humidity
6174;DHT22;3120;48.796;9.796;2024-01-30T00:02:17;0.10;99.90
6174;DHT22;3120;48.796;9.796;2024-01-30T00:04:43;0.10;99.90
6174;DHT22;3120;48.796;9.796;2024-01-30T00:07:08;0.10;99.90
6174;DHT22;3120;48.796;9.796;2024-01-30T00:09:34;0.10;99.90
6174;DHT22;3120;48.796;9.796;2024-01-30T00:12:00;0.10;99.90
6174;DHT22;3120;48.796;9.796;2024-01-30T00:14:25;0.10;99.90
6174;DHT22;3120;48.796;9.796;2024-01-30T00:16:51;0.20;99.90
6174;DHT22;3120;48.796;9.796;2024-01-30T00:19:17;0.10;99.90
6174;DHT22;3120;48.796;9.796;2024-01-30T00:21:43;0.10;99.90
6174;DHT22;3120;48.796;9.796;2024-01-30T00:24:09;0.10;99.90
6174;DHT22;3120;48.796;9.796;2024-01-30T00:26:34;0.00;99.90
6174;DHT22;3120;48.796;9.796;2024-01-30T00:29:00;0.00;99.90
6174;DHT22;3120;48.796;9.796;2024-01-30T00:31:26;0.10;99.90
6174;DHT22;3120;48.796;9.796;2024-01-30T00:33:52;0.10;99.90
6174;DHT22;3120;48.796;9.796;2024-01-30T00:36:17;0.10;99.90
6174;DHT22;3120;48.796;9.796;2024-01-30T00:38:43;0.10;99.90
6174;DHT22;3120;48.796;9.796;2024-01-30T00:41:09;0.10;99.90
6174;DHT22;3120;48.796;9.796;2024-01-30T00:43:35;0.00;99.90
6174;DHT22;3120;48.796;9.796;2024-01-30T00:46:01;-0.10;99.90
6174;DHT22;3120;48.796;9.796;2024-01-30T00:48:27;-0.10;99.90
6174;DHT22;3120;48.796;9.796;2024-01-30T00:50:52;-0.10;99.90
6174;DHT22;3120;48.796;9.796;2024-01-30T00:53:18;-0.20;99.90
6174;DHT22;3120;48.796;9.796;2024-01-30T00:55:43;-0.20;99.90
6174;DHT22;3120;48.796;9.796;2024-01-30T00:58:09;-0.20;99.90
6174;DHT22;3120;48.796;9.796;2024-01-30T01:00:35;-0.30;99.90
6174;DHT22;3120;48.796;9.796;2024-01-30T01:03:01;-0.30;99.90
6174;DHT22;3120;48.796;9.796;2024-01-30T01:05:27;-0.30;99.90
6174;DHT22;3120;48.796;9.796;2024-01-30T01:07:53;-0.30;99.90
6174;DHT22;3120;48.796;9.796;2024-01-30T01:10:18;-0.30;99.90
6174;DHT22;3120;48.796;9.796;2024-01-30T01:12:45;-0.30;99.90
6174;DHT22;3120;48.796;9.796;2024-01-30T01:15:11;-0.20;99.90
6174;DHT22;3120;48.796;9.796;2024-01-30T01:17:37;-0.30;99.90
6174;DHT22;3120;48.796;9.796;2024-01-30T01:20:04;-0.30;99.90
6174;DHT22;3120;48.796;9.796;2024-01-30T01:22:31;-0.30;99.90
6174;DHT22;3120;48.796;9.796;2024-01-30T01:24:56;-0.30;99.90
6174;DHT22;3120;48.796;9.796;2024-01-30T01:27:22;-0.30;99.90
6174;DHT22;3120;48.796;9.796;2024-01-30T01:29:47;-0.30;99.90
6174;DHT22;3120;48.796;9.796;2024-01-30T01:32:13;-0.30;99.90
6174;DHT22;3120;48.796;9.796;2024-01-30T01:34:38;-0.30;99.90
6174;DHT22;3120;48.796;9.796;2024-01-30T01:37:04;-0.30;99.90
6174;DHT22;3120;48.796;9.796;2024-01-30T01:39:29;-0.30;99.90
6174;DHT22;3120;48.796;9.796;2024-01-30T01:41:55;-0.30;99.90
6174;DHT22;3120;48.796;9.796;2024-01-30T01:44:21;-0.30;99.90
6174;DHT22;3120;48.796;9.796;2024-01-30T01:46:47;-0.30;99.90
6174;DHT22;3120;48.796;9.796;2024-01-30T01:49:13;-0.40;99.90
6174;DHT22;3120;48.796;9.796;2024-01-30T01:51:40;-0.40;99.90
6174;DHT22;3120;48.796;9.796;2024-01-30T01:54:06;-0.40;99.90
6174;DHT22;3120;48.796;9.796;2024-01-30T01:56:33;-0.40;99.90
6174;DHT22;3120;48.796;9.796;2024-01-30T01:59:04;-0.40;99.90
6174;DHT22;3120;48.796;9.796;2024-01-30T02:01:31;-0.40;99.90
6174;DHT22;3120;48.796;9.796;2024-01-30T02:03:58;-0.40;99.90
6174;DHT22;3120;48.796;9.796;2024-01-30T02:06:24;-0.40;99.90
6174;DHT22;3120;48.796;9.796;2024-01-30T02:08:50;-0.40;99.90
6174;DHT22;3120;48.796;9.796;2024-01-30T02:11:16;-0.40;99.90
6174;DHT22;3120;48.796;9.796;2024-01-30T02:13:42;-0.50;99.90
6174;DHT22;3120;48.796;9.796;2024-01-30T02:16:08;-0.50;99.90
6174;DHT22;3120;48.796;9.796;2024-01-30T02:18:33;-0.40;99.90
6174;DHT22;3120;48.796;9.796;2024-01-30T02:21:03;-0.40;99.90
6174;DHT22;3120;48.796;9.796;2024-01-30T02:23:30;-0.40;99.90
6174;DHT22;3120;48.796;9.796;2024-01-30T02:25:56;-0.50;99.90
6174;DHT22;3120;48.796;9.796;2024-01-30T02:28:22;-0.50;99.90
6174;DHT22;3120;48.796;9.796;2024-01-30T02:30:47;-0.40;99.90
6174;DHT22;3120;48.796;9.796;2024-01-30T02:33:13;-0.50;99.90
6174;DHT22;3120;48.796;9.796;2024-01-30T02:35:39;-0.50;99.90
6174;DHT22;3120;48.796;9.796;2024-01-30T02:38:05;-0.50;99.90
6174;DHT22;3120;48.796;9.796;2024-01-30T02:40:31;-0.50;99.90
6174;DHT22;3120;48.796;9.796;2024-01-30T02:42:58;-0.50;99.90
6174;DHT22;3120;48.796;9.796;2024-01-30T02:45:24;-0.50;99.90
6174;DHT22;3120;48.796;9.796;2024-01-30T02:47:49;-0.50;99.90
6174;DHT22;3120;48.796;9.796;2024-01-30T02:50:15;-0.60;99.90
6174;DHT22;3120;48.796;9.796;2024-01-30T02:52:41;-0.60;99.90
6174;DHT22;3120;48.796;9.796;2024-01-30T02:55:09;-0.60;99.90
6174;DHT22;3120;48.796;9.796;2024-01-30T02:57:35;-0.60;99.90
6174;DHT22;3120;48.796;9.796;2024-01-30T03:00:00;-0.50;99.90
6174;DHT22;3120;48.796;9.796;2024-01-30T03:02:26;-0.60;99.90
6174;DHT22;3120;48.796;9.796;2024-01-30T03:04:52;-0.60;99.90
6174;DHT22;3120;48.796;9.796;2024-01-30T03:07:17;-0.60;99.90
6174;DHT22;3120;48.796;9.796;2024-01-30T03:09:43;-0.70;99.90
6174;DHT22;3120;48.796;9.796;2024-01-30T03:12:09;-0.70;99.90
6174;DHT22;3120;48.796;9.796;2024-01-30T03:14:35;-0.70;99.90
6174;DHT22;3120;48.796;9.796;2024-01-30T03:17:00;-0.80;99.90
6174;DHT22;3120;48.796;9.796;2024-01-30T03:19:26;-0.70;99.90
6174;DHT22;3120;48.796;9.796;2024-01-30T03:21:51;-0.70;99.90
6174;DHT22;3120;48.796;9.796;2024-01-30T03:24:17;-0.70;99.90
6174;DHT22;3120;48.796;9.796;2024-01-30T03:26:43;-0.70;99.90
6174;DHT22;3120;48.796;9.796;2024-01-30T03:29:08;-0.70;99.90
6174;DHT22;3120;48.796;9.796;2024-01-30T03:31:34;-0.80;99.90
6174;DHT22;3120;48.796;9.796;2024-01-30T03:34:00;-0.80;99.90
6174;DHT22;3120;48.796;9.796;2024-01-30T03:36:26;-0.80;99.90
6174;DHT22;3120;48.796;9.796;2024-01-30T03:38:51;-0.80;99.90
6174;DHT22;3120;48.796;9.796;2024-01-30T03:41:17;-0.80;99.90
6174;DHT22;3120;48.796;9.796;2024-01-30T03:43:42;-0.90;99.90
6174;DHT22;3120;48.796;9.796;2024-01-30T03:46:08;-0.90;99.90
6174;DHT22;3120;48.796;9.796;2024-01-30T03:48:33;-0.90;99.90
6174;DHT22;3120;48.796;9.796;2024-01-30T03:50:59;-0.90;99.90
6174;DHT22;3120;48.796;9.796;2024-01-30T03:53:25;-1.00;99.90
6174;DHT22;3120;48.796;9.796;2024-01-30T03:55:50;-1.10;99.90
6174;DHT22;3120;48.796;9.796;2024-01-30T03:58:16;-1.00;99.90
6174;DHT22;3120;48.796;9.796;2024-01-30T04:00:41;-1.10;99.90
6174;DHT22;3120;48.796;9.796;2024-01-30T04:03:07;-1.10;99.90
6174;DHT22;3120;48.796;9.796;2024-01-30T04:05:33;-1.00;99.90
6174;DHT22;3120;48.796;9.796;2024-01-30T04:07:58;-1.00;99.90
6174;DHT22;3120;48.796;9.796;2024-01-30T04:10:24;-1.00;99.90
6174;DHT22;3120;48.796;9.796;2024-01-30T04:12:52;-1.00;99.90
6174;DHT22;3120;48.796;9.796;2024-01-30T04:15:19;-1.00;99.90
6174;DHT22;3120;48.796;9.796;2024-01-30T04:17:45;-1.10;99.90
6174;DHT22;3120;48.796;9.796;2024-01-30T04:20:14;-1.10;99.90
6174;DHT22;3120;48.796;9.796;2024-01-30T04:22:42;-1.10;99.90
6174;DHT22;3120;48.796;9.796;2024-01-30T04:25:08;-1.10;99.90
6174;DHT22;3120;48.796;9.796;2024-01-30T04:27:33;-1.10;99.90
6174;DHT22;3120;48.796;9.796;2024-01-30T04:29:59;-1.10;99.90
6174;DHT22;3120;48.796;9.796;2024-01-30T04:32:25;-1.20;99.90
6174;DHT22;3120;48.796;9.796;2024-01-30T04:34:50;-1.10;99.90
6174;DHT22;3120;48.796;9.796;2024-01-30T04:37:15;-1.10;99.90
6174;DHT22;3120;48.796;9.796;2024-01-30T04:39:41;-1.20;99.90
6174;DHT22;3120;48.796;9.796;2024-01-30T04:42:07;-1.20;99.90
6174;DHT22;3120;48.796;9.796;2024-01-30T04:44:32;-1.20;99.90
6174;DHT22;3120;48.796;9.796;2024-01-30T04:46:58;-1.20;99.90
6174;DHT22;3120;48.796;9.796;2024-01-30T04:49:27;-1.10;99.90
6174;DHT22;3120;48.796;9.796;2024-01-30T04:51:52;-1.10;99.90
6174;DHT22;3120;48.796;9.796;2024-01-30T04:54:18;-1.10;99.90
6174;DHT22;3120;48.796;9.796;2024-01-30T04:56:43;-1.10;99.90
6174;DHT22;3120;48.796;9.796;2024-01-30T04:59:09;-1.10;99.90
6174;DHT22;3120;48.796;9.796;2024-01-30T05:01:34;-1.10;99.90
6174;DHT22;3120;48.796;9.796;2024-01-30T05:04:00;-1.10;99.90
6174;DHT22;3120;48.796;9.796;2024-01-30T05:06:27;-1.20;99.90
6174;DHT22;3120;48.796;9.796;2024-01-30T05:08:53;-1.20;99.90
6174;DHT22;3120;48.796;9.796;2024-01-30T05:11:18;-1.20;99.90
6174;DHT22;3120;48.796;9.796;2024-01-30T05:13:44;-1.20;99.90
6174;DHT22;3120;48.796;9.796;2024-01-30T05:16:10;-1.20;99.90
6174;DHT22;3120;48.796;9.796;2024-01-30T05:18:36;-1.30;99.90
6174;DHT22;3120;48.796;9.796;2024-01-30T05:21:02;-1.30;99.90
6174;DHT22;3120;48.796;9.796;2024-01-30T05:23:29;-1.30;99.90
6174;DHT22;3120;48.796;9.796;2024-01-30T05:25:54;-1.30;99.90
6174;DHT22;3120;48.796;9.796;2024-01-30T05:28:20;-1.30;99.90
6174;DHT22;3120;48.796;9.796;2024-01-30T05:30:45;-1.40;99.90
6174;DHT22;3120;48.796;9.796;2024-01-30T05:33:11;-1.10;99.90
6174;DHT22;3120;48.796;9.796;2024-01-30T05:35:40;-1.30;99.90
6174;DHT22;3120;48.796;9.796;2024-01-30T05:38:05;-1.30;99.90
6174;DHT22;3120;48.796;9.796;2024-01-30T05:40:31;-1.40;99.90
6174;DHT22;3120;48.796;9.796;2024-01-30T05:42:57;-1.40;99.90
6174;DHT22;3120;48.796;9.796;2024-01-30T05:45:26;-1.40;99.90
6174;DHT22;3120;48.796;9.796;2024-01-30T05:47:52;-1.40;99.90
6174;DHT22;3120;48.796;9.796;2024-01-30T05:50:18;-1.40;99.90
6174;DHT22;3120;48.796;9.796;2024-01-30T05:52:43;-1.40;99.90
6174;DHT22;3120;48.796;9.796;2024-01-30T05:55:09;-1.40;99.90
6174;DHT22;3120;48.796;9.796;2024-01-30T05:57:35;-1.40;99.90
6174;DHT22;3120;48.796;9.796;2024-01-30T06:00:00;-1.30;99.90
6174;DHT22;3120;48.796;9.796;2024-01-30T06:02:26;-1.40;99.90
6174;DHT22;3120;48.796;9.796;2024-01-30T06:04:51;-1.40;99.90
6174;DHT22;3120;48.796;9.796;2024-01-30T06:07:17;-1.40;99.90
6174;DHT22;3120;48.796;9.796;2024-01-30T06:09:43;-1.30;99.90
6174;DHT22;3120;48.796;9.796;2024-01-30T06:12:08;-1.30;99.90
6174;DHT22;3120;48.796;9.796;2024-01-30T06:14:34;-1.30;99.90
6174;DHT22;3120;48.796;9.796;2024-01-30T06:17:00;-1.30;99.90
6174;DHT22;3120;48.796;9.796;2024-01-30T06:19:25;-1.30;99.90
6174;DHT22;3120;48.796;9.796;2024-01-30T06:21:51;-1.30;99.90
6174;DHT22;3120;48.796;9.796;2024-01-30T06:24:16;-1.20;99.90
6174;DHT22;3120;48.796;9.796;2024-01-30T06:26:42;-1.20;99.90
6174;DHT22;3120;48.796;9.796;2024-01-30T06:29:08;-1.20;99.90
6174;DHT22;3120;48.796;9.796;2024-01-30T06:31:39;-1.20;99.90
6174;DHT22;3120;48.796;9.796;2024-01-30T06:34:05;-1.20;99.90
6174;DHT22;3120;48.796;9.796;2024-01-30T06:36:31;-1.20;99.90
6174;DHT22;3120;48.796;9.796;2024-01-30T06:38:56;-1.20;99.90
6174;DHT22;3120;48.796;9.796;2024-01-30T06:41:22;-1.10;99.90
6174;DHT22;3120;48.796;9.796;2024-01-30T06:43:47;-1.20;99.90
6174;DHT22;3120;48.796;9.796;2024-01-30T06:46:13;-1.10;99.90
6174;DHT22;3120;48.796;9.796;2024-01-30T06:48:39;-1.20;99.90
6174;DHT22;3120;48.796;9.796;2024-01-30T06:51:06;-1.20;99.90
6174;DHT22;3120;48.796;9.796;2024-01-30T06:53:31;-1.10;99.90
6174;DHT22;3120;48.796;9.796;2024-01-30T06:55:57;-1.10;99.90
6174;DHT22;3120;48.796;9.796;2024-01-30T06:58:23;-1.00;99.90
6174;DHT22;3120;48.796;9.796;2024-01-30T07:00:48;-1.00;99.90
6174;DHT22;3120;48.796;9.796;2024-01-30T07:03:14;-1.00;99.90
6174;DHT22;3120;48.796;9.796;2024-01-30T07:05:39;-1.00;99.90
6174;DHT22;3120;48.796;9.796;2024-01-30T07:08:05;-1.00;99.90
6174;DHT22;3120;48.796;9.796;2024-01-30T07:10:31;-1.00;99.90
6174;DHT22;3120;48.796;9.796;2024-01-30T07:12:56;-1.00;99.90
6174;DHT22;3120;48.796;9.796;2024-01-30T07:15:22;-0.90;99.90
6174;DHT22;3120;48.796;9.796;2024-01-30T07:17:48;-0.90;99.90
6174;DHT22;3120;48.796;9.796;2024-01-30T07:20:13;-0.80;99.90
6174;DHT22;3120;48.796;9.796;2024-01-30T07:22:40;-0.80;99.90
6174;DHT22;3120;48.796;9.796;2024-01-30T07:25:06;-0.70;99.90
6174;DHT22;3120;48.796;9.796;2024-01-30T07:27:31;-0.70;99.90
6174;DHT22;3120;48.796;9.796;2024-01-30T07:29:57;-0.60;99.90
6174;DHT22;3120;48.796;9.796;2024-01-30T07:32:22;-0.60;99.90
6174;DHT22;3120;48.796;9.796;2024-01-30T07:34:49;-0.50;99.90
6174;DHT22;3120;48.796;9.796;2024-01-30T07:37:14;-0.40;99.90
6174;DHT22;3120;48.796;9.796;2024-01-30T07:39:41;-0.40;99.90
6174;DHT22;3120;48.796;9.796;2024-01-30T07:42:08;-0.30;99.90
6174;DHT22;3120;48.796;9.796;2024-01-30T07:44:34;-0.30;99.90
6174;DHT22;3120;48.796;9.796;2024-01-30T07:46:59;-0.30;99.90
6174;DHT22;3120;48.796;9.796;2024-01-30T07:49:25;-0.20;99.90
6174;DHT22;3120;48.796;9.796;2024-01-30T07:51:50;-0.20;99.90
6174;DHT22;3120;48.796;9.796;2024-01-30T07:54:16;-0.20;99.90
6174;DHT22;3120;48.796;9.796;2024-01-30T07:56:42;-0.10;99.90
6174;DHT22;3120;48.796;9.796;2024-01-30T07:59:11;0.00;99.90
6174;DHT22;3120;48.796;9.796;2024-01-30T08:01:38;0.10;99.90
6174;DHT22;3120;48.796;9.796;2024-01-30T08:04:03;0.20;99.90
6174;DHT22;3120;48.796;9.796;2024-01-30T08:06:29;0.20;99.90
6174;DHT22;3120;48.796;9.796;2024-01-30T08:08:57;0.50;99.90
6174;DHT22;3120;48.796;9.796;2024-01-30T08:11:24;0.40;99.90
6174;DHT22;3120;48.796;9.796;2024-01-30T08:13:52;0.40;99.90
6174;DHT22;3120;48.796;9.796;2024-01-30T08:16:18;0.50;99.90
6174;DHT22;3120;48.796;9.796;2024-01-30T08:18:44;0.50;99.90
6174;DHT22;3120;48.796;9.796;2024-01-30T08:21:09;0.50;99.90
6174;DHT22;3120;48.796;9.796;2024-01-30T08:23:35;0.60;99.90
6174;DHT22;3120;48.796;9.796;2024-01-30T08:26:01;0.60;99.90
6174;DHT22;3120;48.796;9.796;2024-01-30T08:28:26;0.70;99.90
6174;DHT22;3120;48.796;9.796;2024-01-30T08:30:55;0.80;99.90
6174;DHT22;3120;48.796;9.796;2024-01-30T08:33:21;0.90;99.90
6174;DHT22;3120;48.796;9.796;2024-01-30T08:35:47;1.10;99.90
6174;DHT22;3120;48.796;9.796;2024-01-30T08:38:12;1.20;99.90
6174;DHT22;3120;48.796;9.796;2024-01-30T08:40:38;1.30;99.90
6174;DHT22;3120;48.796;9.796;2024-01-30T08:43:03;1.40;99.90
6174;DHT22;3120;48.796;9.796;2024-01-30T08:45:29;1.50;99.90
6174;DHT22;3120;48.796;9.796;2024-01-30T08:47:56;1.50;99.90
6174;DHT22;3120;48.796;9.796;2024-01-30T08:50:21;1.60;99.90
6174;DHT22;3120;48.796;9.796;2024-01-30T08:52:47;1.80;99.90
6174;DHT22;3120;48.796;9.796;2024-01-30T08:55:13;2.00;99.90
6174;DHT22;3120;48.796;9.796;2024-01-30T08:57:38;2.10;99.90
6174;DHT22;3120;48.796;9.796;2024-01-30T09:00:04;2.10;99.90
6174;DHT22;3120;48.796;9.796;2024-01-30T09:02:32;2.20;99.90
6174;DHT22;3120;48.796;9.796;2024-01-30T09:04:57;2.40;99.90
6174;DHT22;3120;48.796;9.796;2024-01-30T09:07:24;2.80;99.90
6174;DHT22;3120;48.796;9.796;2024-01-30T09:09:49;3.50;99.90
6174;DHT22;3120;48.796;9.796;2024-01-30T09:12:15;4.10;99.90
6174;DHT22;3120;48.796;9.796;2024-01-30T09:14:40;4.80;99.90
6174;DHT22;3120;48.796;9.796;2024-01-30T09:17:06;5.30;99.90
6174;DHT22;3120;48.796;9.796;2024-01-30T09:19:32;5.30;99.90
6174;DHT22;3120;48.796;9.796;2024-01-30T09:21:58;5.40;99.90
6174;DHT22;3120;48.796;9.796;2024-01-30T09:24:24;5.80;99.90
6174;DHT22;3120;48.796;9.796;2024-01-30T09:26:49;6.10;99.90
6174;DHT22;3120;48.796;9.796;2024-01-30T09:29:15;6.40;99.90
6174;DHT22;3120;48.796;9.796;2024-01-30T09:31:43;6.10;99.90
6174;DHT22;3120;48.796;9.796;2024-01-30T09:34:10;5.80;99.90
6174;DHT22;3120;48.796;9.796;2024-01-30T09:36:36;6.30;99.90
6174;DHT22;3120;48.796;9.796;2024-01-30T09:39:01;6.90;99.90
6174;DHT22;3120;48.796;9.796;2024-01-30T09:41:27;7.10;99.90
6174;DHT22;3120;48.796;9.796;2024-01-30T09:43:54;7.50;99.90
6174;DHT22;3120;48.796;9.796;2024-01-30T09:46:26;8.20;99.90
6174;DHT22;3120;48.796;9.796;2024-01-30T09:48:54;8.00;99.90
6174;DHT22;3120;48.796;9.796;2024-01-30T09:51:21;8.60;99.90
6174;DHT22;3120;48.796;9.796;2024-01-30T09:53:48;8.90;99.90
6174;DHT22;3120;48.796;9.796;2024-01-30T09:56:14;8.40;99.90
6174;DHT22;3120;48.796;9.796;2024-01-30T09:58:39;8.30;99.90
6174;DHT22;3120;48.796;9.796;2024-01-30T10:01:05;8.60;99.90
6174;DHT22;3120;48.796;9.796;2024-01-30T10:03:31;8.60;99.90
6174;DHT22;3120;48.796;9.796;2024-01-30T10:05:56;8.60;99.90
6174;DHT22;3120;48.796;9.796;2024-01-30T10:08:22;8.70;99.90
6174;DHT22;3120;48.796;9.796;2024-01-30T10:10:49;9.00;99.90
6174;DHT22;3120;48.796;9.796;2024-01-30T10:13:15;10.00;99.90
6174;DHT22;3120;48.796;9.796;2024-01-30T10:15:41;9.80;99.90
6174;DHT22;3120;48.796;9.796;2024-01-30T10:18:08;10.30;99.40
6174;DHT22;3120;48.796;9.796;2024-01-30T10:20:35;10.80;97.50
6174;DHT22;3120;48.796;9.796;2024-01-30T10:23:01;11.20;95.90
6174;DHT22;3120;48.796;9.796;2024-01-30T10:25:27;11.00;95.30
6174;DHT22;3120;48.796;9.796;2024-01-30T10:27:56;10.50;95.60
6174;DHT22;3120;48.796;9.796;2024-01-30T10:30:22;10.20;96.10
6174;DHT22;3120;48.796;9.796;2024-01-30T10:32:48;10.00;96.60
6174;DHT22;3120;48.796;9.796;2024-01-30T10:35:14;10.00;96.30
6174;DHT22;3120;48.796;9.796;2024-01-30T10:37:41;10.00;96.50
6174;DHT22;3120;48.796;9.796;2024-01-30T10:40:09;10.10;97.00
6174;DHT22;3120;48.796;9.796;2024-01-30T10:42:37;10.70;95.90
6174;DHT22;3120;48.796;9.796;2024-01-30T10:45:08;11.10;93.50
6174;DHT22;3120;48.796;9.796;2024-01-30T10:47:35;11.00;93.40
6174;DHT22;3120;48.796;9.796;2024-01-30T10:50:05;10.80;94.20
6174;DHT22;3120;48.796;9.796;2024-01-30T10:52:32;10.80;94.30
6174;DHT22;3120;48.796;9.796;2024-01-30T10:54:58;10.90;94.20
6174;DHT22;3120;48.796;9.796;2024-01-30T10:57:25;11.10;93.80
6174;DHT22;3120;48.796;9.796;2024-01-30T10:59:57;11.70;92.30
6174;DHT22;3120;48.796;9.796;2024-01-30T11:02:23;12.40;90.80
6174;DHT22;3120;48.796;9.796;2024-01-30T11:04:49;12.20;90.60
6174;DHT22;3120;48.796;9.796;2024-01-30T11:07:19;12.70;89.70
6174;DHT22;3120;48.796;9.796;2024-01-30T11:12:27;12.10;90.20
6174;DHT22;3120;48.796;9.796;2024-01-30T11:15:07;11.70;90.90
6174;DHT22;3120;48.796;9.796;2024-01-30T11:20:15;10.70;92.90
6174;DHT22;3120;48.796;9.796;2024-01-30T11:22:42;10.50;93.10
6174;DHT22;3120;48.796;9.796;2024-01-30T11:25:14;10.80;93.40
6174;DHT22;3120;48.796;9.796;2024-01-30T11:27:41;10.60;93.20
6174;DHT22;3120;48.796;9.796;2024-01-30T11:30:07;10.70;93.40
6174;DHT22;3120;48.796;9.796;2024-01-30T11:32:33;10.90;93.40
6174;DHT22;3120;48.796;9.796;2024-01-30T11:34:59;11.00;93.50
6174;DHT22;3120;48.796;9.796;2024-01-30T11:37:25;10.90;93.40
6174;DHT22;3120;48.796;9.796;2024-01-30T11:39:53;10.80;93.10
6174;DHT22;3120;48.796;9.796;2024-01-30T11:42:19;10.80;93.00
6174;DHT22;3120;48.796;9.796;2024-01-30T11:44:48;10.70;93.80
6174;DHT22;3120;48.796;9.796;2024-01-30T11:47:14;11.30;93.40
6174;DHT22;3120;48.796;9.796;2024-01-30T11:49:41;11.40;92.80
6174;DHT22;3120;48.796;9.796;2024-01-30T11:52:07;11.50;92.60
6174;DHT22;3120;48.796;9.796;2024-01-30T11:54:32;11.60;92.80
6174;DHT22;3120;48.796;9.796;2024-01-30T11:56:58;11.70;91.50
6174;DHT22;3120;48.796;9.796;2024-01-30T11:59:24;12.40;91.80
6174;DHT22;3120;48.796;9.796;2024-01-30T12:01:51;11.80;92.50
6174;DHT22;3120;48.796;9.796;2024-01-30T12:04:17;12.20;91.20
6174;DHT22;3120;48.796;9.796;2024-01-30T12:06:43;12.60;90.30
6174;DHT22;3120;48.796;9.796;2024-01-30T12:09:09;12.60;90.30
6174;DHT22;3120;48.796;9.796;2024-01-30T12:11:55;12.90;87.90
6174;DHT22;3120;48.796;9.796;2024-01-30T12:14:22;13.40;85.40
6174;DHT22;3120;48.796;9.796;2024-01-30T12:16:49;13.70;82.80
6174;DHT22;3120;48.796;9.796;2024-01-30T12:19:25;14.10;82.10
6174;DHT22;3120;48.796;9.796;2024-01-30T12:21:57;13.90;82.50
6174;DHT22;3120;48.796;9.796;2024-01-30T12:24:27;14.20;81.00
6174;DHT22;3120;48.796;9.796;2024-01-30T12:26:58;14.10;80.70
6174;DHT22;3120;48.796;9.796;2024-01-30T12:29:24;13.90;81.80
6174;DHT22;3120;48.796;9.796;2024-01-30T12:31:53;13.80;80.90
6174;DHT22;3120;48.796;9.796;2024-01-30T12:34:19;13.60;82.20
6174;DHT22;3120;48.796;9.796;2024-01-30T12:36:47;13.60;83.50
6174;DHT22;3120;48.796;9.796;2024-01-30T12:39:14;13.60;83.60
6174;DHT22;3120;48.796;9.796;2024-01-30T12:41:40;14.10;81.20
6174;DHT22;3120;48.796;9.796;2024-01-30T12:44:07;14.40;80.70
6174;DHT22;3120;48.796;9.796;2024-01-30T12:46:34;14.90;77.90
6174;DHT22;3120;48.796;9.796;2024-01-30T12:49:00;15.30;76.40
6174;DHT22;3120;48.796;9.796;2024-01-30T12:51:26;15.40;72.20
6174;DHT22;3120;48.796;9.796;2024-01-30T12:53:51;15.10;76.10
6174;DHT22;3120;48.796;9.796;2024-01-30T12:56:17;15.20;71.60
6174;DHT22;3120;48.796;9.796;2024-01-30T12:58:42;15.50;69.20
6174;DHT22;3120;48.796;9.796;2024-01-30T13:01:08;15.50;69.00
6174;DHT22;3120;48.796;9.796;2024-01-30T13:03:34;15.90;68.30
6174;DHT22;3120;48.796;9.796;2024-01-30T13:06:00;16.10;66.30
6174;DHT22;3120;48.796;9.796;2024-01-30T13:08:25;16.30;64.10
6174;DHT22;3120;48.796;9.796;2024-01-30T13:10:51;16.20;63.20
6174;DHT22;3120;48.796;9.796;2024-01-30T13:13:16;16.10;63.80
6174;DHT22;3120;48.796;9.796;2024-01-30T13:15:42;16.00;63.40
6174;DHT22;3120;48.796;9.796;2024-01-30T13:18:08;15.90;62.40
6174;DHT22;3120;48.796;9.796;2024-01-30T13:20:33;15.20;64.20
6174;DHT22;3120;48.796;9.796;2024-01-30T13:22:59;14.80;66.40
6174;DHT22;3120;48.796;9.796;2024-01-30T13:25:24;14.90;65.80
6174;DHT22;3120;48.796;9.796;2024-01-30T13:27:50;14.80;66.70
6174;DHT22;3120;48.796;9.796;2024-01-30T13:30:16;14.50;67.30
6174;DHT22;3120;48.796;9.796;2024-01-30T13:32:41;14.50;66.80
6174;DHT22;3120;48.796;9.796;2024-01-30T13:35:09;14.60;67.20
6174;DHT22;3120;48.796;9.796;2024-01-30T13:37:35;14.80;66.60
6174;DHT22;3120;48.796;9.796;2024-01-30T13:40:03;14.60;66.20
6174;DHT22;3120;48.796;9.796;2024-01-30T13:42:32;14.40;65.40
6174;DHT22;3120;48.796;9.796;2024-01-30T13:44:57;14.10;66.30
6174;DHT22;3120;48.796;9.796;2024-01-30T13:47:23;14.00;66.50
6174;DHT22;3120;48.796;9.796;2024-01-30T13:49:48;13.90;66.80
6174;DHT22;3120;48.796;9.796;2024-01-30T13:52:14;13.80;68.00
6174;DHT22;3120;48.796;9.796;2024-01-30T13:54:39;13.60;69.00
6174;DHT22;3120;48.796;9.796;2024-01-30T13:57:05;13.80;68.10
6174;DHT22;3120;48.796;9.796;2024-01-30T13:59:33;14.00;68.10
6174;DHT22;3120;48.796;9.796;2024-01-30T14:01:58;14.20;67.40
6174;DHT22;3120;48.796;9.796;2024-01-30T14:04:24;14.30;67.00
6174;DHT22;3120;48.796;9.796;2024-01-30T14:06:49;14.20;66.90
6174;DHT22;3120;48.796;9.796;2024-01-30T14:09:15;14.10;67.20
6174;DHT22;3120;48.796;9.796;2024-01-30T14:11:41;13.90;67.70
6174;DHT22;3120;48.796;9.796;2024-01-30T14:14:08;13.80;68.10
6174;DHT22;3120;48.796;9.796;2024-01-30T14:16:34;13.70;67.30
6174;DHT22;3120;48.796;9.796;2024-01-30T14:18:59;13.50;67.90
6174;DHT22;3120;48.796;9.796;2024-01-30T14:21:25;13.40;69.40
6174;DHT22;3120;48.796;9.796;2024-01-30T14:23:51;13.30;68.40
6174;DHT22;3120;48.796;9.796;2024-01-30T14:26:17;13.30;70.40
6174;DHT22;3120;48.796;9.796;2024-01-30T14:28:43;13.20;70.00
6174;DHT22;3120;48.796;9.796;2024-01-30T14:31:11;13.20;69.40
6174;DHT22;3120;48.796;9.796;2024-01-30T14:33:36;13.10;70.70
6174;DHT22;3120;48.796;9.796;2024-01-30T14:36:02;13.10;71.80
6174;DHT22;3120;48.796;9.796;2024-01-30T14:38:31;13.00;70.90
6174;DHT22;3120;48.796;9.796;2024-01-30T14:40:57;13.00;71.30
6174;DHT22;3120;48.796;9.796;2024-01-30T14:43:22;12.90;72.60
6174;DHT22;3120;48.796;9.796;2024-01-30T14:45:48;12.70;74.50
6174;DHT22;3120;48.796;9.796;2024-01-30T14:48:15;12.50;76.90
6174;DHT22;3120;48.796;9.796;2024-01-30T14:50:41;12.30;77.20
6174;DHT22;3120;48.796;9.796;2024-01-30T14:53:06;12.40;80.20
6174;DHT22;3120;48.796;9.796;2024-01-30T14:55:32;12.10;78.50
6174;DHT22;3120;48.796;9.796;2024-01-30T14:57:58;12.00;79.50
6174;DHT22;3120;48.796;9.796;2024-01-30T15:00:24;12.00;79.50
6174;DHT22;3120;48.796;9.796;2024-01-30T15:02:50;11.90;78.80
6174;DHT22;3120;48.796;9.796;2024-01-30T15:05:16;11.80;81.60
6174;DHT22;3120;48.796;9.796;2024-01-30T15:07:41;11.70;79.90
6174;DHT22;3120;48.796;9.796;2024-01-30T15:10:10;11.70;80.40
6174;DHT22;3120;48.796;9.796;2024-01-30T15:12:36;11.50;84.90
6174;DHT22;3120;48.796;9.796;2024-01-30T15:15:02;11.30;86.20
6174;DHT22;3120;48.796;9.796;2024-01-30T15:17:28;11.10;87.10
6174;DHT22;3120;48.796;9.796;2024-01-30T15:19:53;10.90;89.50
6174;DHT22;3120;48.796;9.796;2024-01-30T15:22:19;10.80;90.20
6174;DHT22;3120;48.796;9.796;2024-01-30T15:24:45;10.60;90.90
6174;DHT22;3120;48.796;9.796;2024-01-30T15:27:10;10.40;91.30
6174;DHT22;3120;48.796;9.796;2024-01-30T15:29:36;10.30;92.10
6174;DHT22;3120;48.796;9.796;2024-01-30T15:32:01;10.20;92.50
6174;DHT22;3120;48.796;9.796;2024-01-30T15:34:28;10.10;92.60
6174;DHT22;3120;48.796;9.796;2024-01-30T15:36:53;10.10;92.60
6174;DHT22;3120;48.796;9.796;2024-01-30T15:39:19;10.10;92.80
6174;DHT22;3120;48.796;9.796;2024-01-30T15:41:44;10.00;93.50
6174;DHT22;3120;48.796;9.796;2024-01-30T15:44:10;9.90;93.60
6174;DHT22;3120;48.796;9.796;2024-01-30T15:46:36;9.70;93.80
6174;DHT22;3120;48.796;9.796;2024-01-30T15:49:02;9.50;94.90
6174;DHT22;3120;48.796;9.796;2024-01-30T15:51:29;9.30;96.00
6174;DHT22;3120;48.796;9.796;2024-01-30T15:53:55;9.20;96.60
6174;DHT22;3120;48.796;9.796;2024-01-30T15:56:21;9.00;97.50
6174;DHT22;3120;48.796;9.796;2024-01-30T15:58:47;8.90;97.90
6174;DHT22;3120;48.796;9.796;2024-01-30T16:01:15;8.80;98.40
6174;DHT22;3120;48.796;9.796;2024-01-30T16:03:41;8.80;99.20